Time;durP1;ratioP1;P1;durP2;ratioP2;P2;SDS_P1;SDS_P2;PMS_P1;PMS_P2;Temp;Humidity;BMP_temperature;BMP_pressure;BME280_temperature;BME280_humidity;BME280_pressure;Samples;Min_cycle;Max_cycle;Signal;HPM_P1;HPM_P2
2022/11/25 00:00:20;;;;;;;3.37;2.10;;;3.50;99.90;;;;;;4973300;28;20464;-69
2022/11/25 00:02:47;;;;;;;1.93;1.60;;;3.40;99.90;;;;;;4971540;28;20845;-69
2022/11/25 00:05:13;;;;;;;4.60;2.50;;;3.30;99.90;;;;;;4985220;28;20492;-68
2022/11/25 00:07:40;;;;;;;3.03;1.40;;;3.20;99.90;;;;;;4971958;28;20453;-68
2022/11/25 00:10:09;;;;;;;3.13;1.67;;;3.20;99.90;;;;;;4976668;28;20457;-68
2022/11/25 00:12:36;;;;;;;3.70;2.30;;;3.20;99.90;;;;;;4975703;28;20454;-69
2022/11/25 00:15:03;;;;;;;4.50;1.70;;;3.10;99.90;;;;;;4971918;28;20457;-68
2022/11/25 00:17:30;;;;;;;4.03;1.90;;;3.20;99.90;;;;;;4984283;28;20455;-69
2022/11/25 00:20:00;;;;;;;2.80;1.20;;;3.20;99.90;;;;;;4971830;28;20821;-69
2022/11/25 00:22:27;;;;;;;5.63;2.53;;;3.30;99.90;;;;;;4983633;28;20531;-69
2022/11/25 00:24:53;;;;;;;7.43;1.83;;;3.30;99.90;;;;;;4972521;28;20496;-69
2022/11/25 00:27:22;;;;;;;3.47;2.17;;;3.20;99.90;;;;;;4983821;28;20815;-69
2022/11/25 00:29:48;;;;;;;5.23;1.57;;;3.30;99.90;;;;;;4972583;28;20464;-69
2022/11/25 00:32:15;;;;;;;5.93;3.40;;;3.30;99.90;;;;;;4983107;28;20819;-69
2022/11/25 00:34:42;;;;;;;3.87;2.37;;;3.20;99.90;;;;;;4973077;28;20456;-67
2022/11/25 00:37:09;;;;;;;2.20;1.27;;;3.10;99.90;;;;;;4985539;28;20510;-69
2022/11/25 00:39:36;;;;;;;4.37;2.37;;;3.30;99.90;;;;;;4986620;28;20456;-69
2022/11/25 00:44:48;;;;;;;1.73;1.60;;;3.40;99.90;;;;;;4984713;28;20619;-69
2022/11/25 00:47:16;;;;;;;3.10;2.30;;;3.30;99.90;;;;;;4977842;28;20454;-69
2022/11/25 00:49:45;;;;;;;6.83;2.57;;;3.40;99.90;;;;;;4985831;28;20975;-67
2022/11/25 00:52:15;;;;;;;3.43;1.87;;;3.40;99.90;;;;;;4990366;28;20457;-68
2022/11/25 00:54:43;;;;;;;2.53;2.00;;;3.40;99.90;;;;;;4988056;28;20525;-67
2022/11/25 00:57:10;;;;;;;10.37;2.80;;;3.30;99.90;;;;;;4984629;28;20545;-68
2022/11/25 00:59:37;;;;;;;1.60;1.40;;;3.50;99.90;;;;;;4981888;28;20466;-68
2022/11/25 01:02:05;;;;;;;7.80;2.97;;;3.60;99.90;;;;;;4989322;28;20471;-69
2022/11/25 01:04:31;;;;;;;2.80;1.63;;;3.60;99.90;;;;;;4985745;28;20581;-69
2022/11/25 01:06:59;;;;;;;2.30;1.70;;;3.70;99.90;;;;;;4989856;28;20452;-69
2022/11/25 01:09:27;;;;;;;6.33;1.90;;;3.80;99.90;;;;;;4991460;28;20493;-69
2022/11/25 01:11:53;;;;;;;2.03;1.70;;;3.80;99.90;;;;;;4991510;28;20516;-69
2022/11/25 01:14:21;;;;;;;2.73;1.53;;;3.80;99.90;;;;;;4992053;28;20461;-69
2022/11/25 01:16:49;;;;;;;3.70;1.50;;;3.80;99.90;;;;;;4980296;28;20962;-69
2022/11/25 01:19:18;;;;;;;5.33;2.63;;;3.90;99.90;;;;;;4994283;28;20533;-69
2022/11/25 01:21:45;;;;;;;3.80;2.07;;;3.90;99.90;;;;;;4990358;28;20729;-69
2022/11/25 01:24:14;;;;;;;4.77;1.90;;;4.00;99.90;;;;;;4993987;28;20448;-69
2022/11/25 01:26:41;;;;;;;3.50;1.80;;;4.00;99.90;;;;;;4989816;28;20774;-68
2022/11/25 01:29:13;;;;;;;8.40;2.00;;;4.00;99.90;;;;;;4984341;28;20457;-69
2022/11/25 01:31:40;;;;;;;2.03;1.30;;;3.90;99.90;;;;;;4989388;28;20455;-68
2022/11/25 01:34:12;;;;;;;4.57;2.13;;;3.80;99.90;;;;;;4991925;28;20452;-69
2022/11/25 01:36:40;;;;;;;12.63;2.47;;;3.80;99.90;;;;;;4980710;28;20468;-69
2022/11/25 01:39:07;;;;;;;5.43;2.63;;;4.00;99.90;;;;;;4989345;28;20459;-69
2022/11/25 01:41:35;;;;;;;1.50;1.23;;;4.00;99.90;;;;;;4984356;28;20997;-69
2022/11/25 01:44:08;;;;;;;2.33;1.80;;;4.20;99.90;;;;;;4985885;28;20997;-69
2022/11/25 01:46:58;;;;;;;4.93;1.83;;;4.20;99.90;;;;;;4979111;28;20450;-69
2022/11/25 01:49:31;;;;;;;3.67;2.57;;;4.30;99.90;;;;;;4987977;28;20460;-70
2022/11/25 01:52:05;;;;;;;6.37;2.20;;;4.40;99.90;;;;;;4992228;28;20445;-69
2022/11/25 01:54:37;;;;;;;7.60;1.93;;;4.50;99.90;;;;;;4978601;28;20963;-70
2022/11/25 01:57:09;;;;;;;2.00;1.40;;;4.60;99.90;;;;;;4986584;28;20450;-69
2022/11/25 01:59:41;;;;;;;2.30;1.30;;;4.60;99.90;;;;;;4992893;28;20463;-68
2022/11/25 02:02:08;;;;;;;2.27;1.50;;;4.50;99.90;;;;;;4988649;28;20479;-69
2022/11/25 02:04:39;;;;;;;3.17;1.83;;;4.40;99.90;;;;;;4982760;28;21020;-69
2022/11/25 02:07:11;;;;;;;2.80;1.50;;;4.40;99.90;;;;;;4979696;28;20453;-68
2022/11/25 02:09:40;;;;;;;1.80;1.53;;;4.50;99.90;;;;;;4985241;28;20450;-69
2022/11/25 02:12:08;;;;;;;4.90;2.53;;;4.50;99.90;;;;;;4985509;28;20957;-69
2022/11/25 02:14:35;;;;;;;2.90;1.87;;;4.40;99.90;;;;;;4979444;28;20465;-69
2022/11/25 02:17:02;;;;;;;2.67;2.17;;;4.50;99.90;;;;;;4985005;28;20453;-68
2022/11/25 02:19:39;;;;;;;3.87;1.60;;;4.50;99.90;;;;;;4984180;28;20458;-69
2022/11/25 02:22:11;;;;;;;2.03;1.37;;;4.50;99.90;;;;;;4991639;28;20951;-68
2022/11/25 02:24:43;;;;;;;3.67;1.77;;;4.40;99.90;;;;;;4993239;28;20473;-69
2022/11/25 02:27:11;;;;;;;2.40;1.30;;;4.40;99.90;;;;;;4988794;28;20456;-69
2022/11/25 02:29:39;;;;;;;2.13;1.10;;;4.40;99.90;;;;;;4979689;28;20470;-68
2022/11/25 02:32:06;;;;;;;2.67;1.97;;;4.40;99.90;;;;;;4976463;28;20465;-69
2022/11/25 02:34:32;;;;;;;2.53;2.10;;;4.40;99.90;;;;;;4985636;28;20452;-69
2022/11/25 02:37:00;;;;;;;2.40;1.50;;;4.30;99.90;;;;;;4979514;28;20932;-69
2022/11/25 02:39:28;;;;;;;5.10;2.40;;;4.60;99.90;;;;;;4991280;28;21010;-69
2022/11/25 02:41:58;;;;;;;4.63;1.70;;;4.50;99.90;;;;;;4986401;28;20453;-69
2022/11/25 02:44:27;;;;;;;4.00;1.97;;;4.50;99.90;;;;;;4983452;28;20455;-69
2022/11/25 02:46:54;;;;;;;4.30;2.10;;;4.60;99.90;;;;;;4980608;28;20479;-68
2022/11/25 02:49:20;;;;;;;5.50;1.60;;;4.60;99.90;;;;;;4992236;28;20452;-68
2022/11/25 02:51:47;;;;;;;8.13;1.50;;;4.60;99.90;;;;;;4982811;28;20808;-68
2022/11/25 02:54:15;;;;;;;2.80;1.43;;;4.60;99.90;;;;;;4991475;28;20455;-69
2022/11/25 02:56:43;;;;;;;1.63;1.30;;;4.60;99.90;;;;;;4982926;28;20467;-67
2022/11/25 02:59:10;;;;;;;2.90;1.47;;;4.60;99.90;;;;;;4977237;28;20478;-68
2022/11/25 03:01:39;;;;;;;2.90;2.20;;;4.60;99.90;;;;;;4991460;28;20480;-69
2022/11/25 03:04:06;;;;;;;11.60;2.10;;;4.70;99.90;;;;;;4992348;28;20581;-69
2022/11/25 03:06:33;;;;;;;3.07;1.43;;;4.50;99.90;;;;;;4992196;28;20498;-69
2022/11/25 03:09:00;;;;;;;3.47;1.20;;;4.50;99.90;;;;;;4981759;28;20639;-69
2022/11/25 03:14:08;;;;;;;1.53;1.37;;;4.20;99.90;;;;;;4986452;28;20434;-69
2022/11/25 03:16:35;;;;;;;2.20;1.60;;;4.00;99.90;;;;;;4992392;28;20848;-69
2022/11/25 03:19:04;;;;;;;5.07;1.57;;;3.80;99.90;;;;;;4978954;28;20461;-68
2022/11/25 03:21:30;;;;;;;2.50;1.90;;;3.70;99.90;;;;;;4990142;28;20455;-68
2022/11/25 03:23:57;;;;;;;1.90;1.47;;;3.70;99.90;;;;;;4986373;28;20446;-68
2022/11/25 03:26:24;;;;;;;3.53;1.70;;;3.60;99.90;;;;;;4991745;28;20898;-68
2022/11/25 03:28:51;;;;;;;2.33;1.80;;;3.80;99.90;;;;;;4987214;28;20472;-68
2022/11/25 03:31:18;;;;;;;2.07;1.70;;;3.80;99.90;;;;;;4991556;28;20457;-69
2022/11/25 03:33:45;;;;;;;2.00;1.77;;;3.80;99.90;;;;;;4990748;28;20452;-68
2022/11/25 03:36:13;;;;;;;2.23;1.40;;;3.60;99.90;;;;;;4990010;28;20460;-68
2022/11/25 03:38:40;;;;;;;3.07;1.50;;;3.50;99.90;;;;;;4976525;28;20460;-67
2022/11/25 03:41:07;;;;;;;2.13;1.80;;;3.50;99.90;;;;;;4984071;28;20451;-68
2022/11/25 03:43:34;;;;;;;4.30;4.00;;;3.60;99.90;;;;;;4986412;28;20450;-69
2022/11/25 03:46:01;;;;;;;8.80;2.43;;;3.60;99.90;;;;;;4985250;28;20704;-68
2022/11/25 03:48:28;;;;;;;2.23;1.37;;;3.50;99.90;;;;;;4988142;28;20453;-68
2022/11/25 03:50:55;;;;;;;2.27;1.20;;;3.60;99.90;;;;;;4987994;28;20460;-69
2022/11/25 03:53:23;;;;;;;2.60;1.73;;;3.70;99.90;;;;;;4984690;28;20469;-68
2022/11/25 03:55:50;;;;;;;2.60;1.93;;;3.70;99.90;;;;;;4981830;28;20458;-68
2022/11/25 03:58:17;;;;;;;4.27;1.63;;;3.70;99.90;;;;;;4984088;28;20860;-68
2022/11/25 04:00:44;;;;;;;3.57;1.70;;;3.60;99.90;;;;;;4980573;28;20484;-67
2022/11/25 04:03:11;;;;;;;6.37;1.80;;;3.60;99.90;;;;;;4990812;28;20478;-68
2022/11/25 04:05:38;;;;;;;3.27;2.03;;;3.60;99.90;;;;;;4987454;28;20989;-68
2022/11/25 04:08:05;;;;;;;2.17;1.70;;;3.70;99.90;;;;;;4983298;28;20468;-68
2022/11/25 04:10:33;;;;;;;1.30;1.13;;;3.80;99.90;;;;;;4978888;28;20454;-69
2022/11/25 04:12:59;;;;;;;2.67;2.00;;;3.60;99.90;;;;;;4978253;28;21176;-68
2022/11/25 04:15:26;;;;;;;1.90;1.70;;;3.50;99.90;;;;;;4982089;28;20466;-69
2022/11/25 04:17:52;;;;;;;2.67;2.10;;;3.40;99.90;;;;;;4990606;28;20202;-68
2022/11/25 04:20:19;;;;;;;2.77;1.53;;;3.40;99.90;;;;;;4986747;28;20459;-68
2022/11/25 04:22:46;;;;;;;2.33;1.83;;;3.40;99.90;;;;;;4983186;28;20466;-68
2022/11/25 04:25:13;;;;;;;3.33;2.43;;;3.40;99.90;;;;;;4985376;28;20484;-68
2022/11/25 04:27:41;;;;;;;2.67;1.90;;;3.80;99.90;;;;;;4979729;28;20451;-67
2022/11/25 04:30:09;;;;;;;1.77;1.67;;;3.80;99.90;;;;;;4988798;28;20467;-69
2022/11/25 04:32:37;;;;;;;2.77;2.03;;;3.90;99.90;;;;;;4990957;28;20461;-68
2022/11/25 04:35:04;;;;;;;5.87;2.20;;;4.00;99.90;;;;;;4982715;28;20509;-69
2022/11/25 04:37:31;;;;;;;5.87;2.60;;;4.00;99.90;;;;;;4983094;28;20453;-69
2022/11/25 04:39:57;;;;;;;3.10;1.77;;;4.00;99.90;;;;;;4976957;28;20456;-69
2022/11/25 04:42:35;;;;;;;4.23;1.70;;;4.00;99.90;;;;;;4989386;28;20458;-69
2022/11/25 04:45:06;;;;;;;2.53;1.37;;;4.00;99.90;;;;;;4987345;28;20472;-69
2022/11/25 04:47:33;;;;;;;3.13;2.00;;;4.10;99.90;;;;;;4991744;28;20453;-70
2022/11/25 04:50:00;;;;;;;3.10;1.80;;;4.00;99.90;;;;;;4990308;28;20458;-68
2022/11/25 04:52:27;;;;;;;2.43;1.60;;;4.00;99.90;;;;;;4983228;28;20457;-68
2022/11/25 04:54:53;;;;;;;4.43;2.50;;;4.10;99.90;;;;;;4981456;28;20459;-68
2022/11/25 04:57:20;;;;;;;5.27;1.80;;;4.00;99.90;;;;;;4993743;28;20804;-68
2022/11/25 04:59:48;;;;;;;5.00;2.50;;;4.00;99.90;;;;;;4982324;28;20464;-68
2022/11/25 05:02:17;;;;;;;2.57;2.37;;;4.10;99.90;;;;;;4992121;28;20473;-68
2022/11/25 05:04:48;;;;;;;6.00;2.53;;;4.00;99.90;;;;;;4990061;28;20451;-67
2022/11/25 05:07:17;;;;;;;3.20;2.07;;;3.90;99.90;;;;;;4978417;28;20975;-68
2022/11/25 05:09:44;;;;;;;5.60;2.67;;;3.90;99.90;;;;;;4992434;28;20453;-67
2022/11/25 05:12:13;;;;;;;3.37;2.43;;;3.90;99.90;;;;;;4992936;28;20452;-68
2022/11/25 05:14:40;;;;;;;3.47;2.27;;;3.90;99.90;;;;;;4982611;28;20958;-67
2022/11/25 05:17:08;;;;;;;4.40;1.93;;;3.90;99.90;;;;;;4987221;28;20463;-69
2022/11/25 05:19:36;;;;;;;4.20;3.07;;;4.00;99.90;;;;;;4985037;28;20533;-70
2022/11/25 05:22:03;;;;;;;4.33;2.80;;;4.00;99.90;;;;;;4986829;28;20652;-69
2022/11/25 05:24:30;;;;;;;5.30;3.20;;;4.00;99.90;;;;;;4992711;28;20467;-70
2022/11/25 05:26:56;;;;;;;3.80;3.17;;;3.90;99.90;;;;;;4978030;28;20511;-69
2022/11/25 05:29:23;;;;;;;5.07;2.70;;;3.90;99.90;;;;;;4993597;28;20457;-69
2022/11/25 05:31:50;;;;;;;4.97;2.50;;;4.00;99.90;;;;;;4993166;28;20464;-69
2022/11/25 05:34:17;;;;;;;4.70;2.83;;;4.00;99.90;;;;;;4993526;28;20834;-69
2022/11/25 05:36:45;;;;;;;6.10;3.00;;;3.90;99.90;;;;;;4987564;28;20458;-68
2022/11/25 05:39:12;;;;;;;5.43;2.37;;;3.90;99.90;;;;;;4990518;28;20463;-70
2022/11/25 05:41:39;;;;;;;3.00;2.70;;;3.90;99.90;;;;;;4988087;28;20462;-70
2022/11/25 05:44:06;;;;;;;2.47;2.23;;;3.80;99.90;;;;;;4987190;28;20557;-70
2022/11/25 05:46:33;;;;;;;3.67;2.97;;;3.80;99.90;;;;;;4991770;28;20489;-68
2022/11/25 05:49:00;;;;;;;4.30;3.50;;;3.80;99.90;;;;;;4992515;28;21273;-69
2022/11/25 05:51:28;;;;;;;3.90;2.30;;;3.70;99.90;;;;;;4979336;28;20796;-69
2022/11/25 05:53:56;;;;;;;5.90;3.97;;;3.80;99.90;;;;;;4985277;28;20510;-68
2022/11/25 05:56:23;;;;;;;7.07;2.50;;;3.70;99.90;;;;;;4992391;28;20812;-70
2022/11/25 05:58:50;;;;;;;6.17;2.73;;;3.60;99.90;;;;;;4978562;28;20950;-68
2022/11/25 06:01:17;;;;;;;2.90;1.80;;;3.60;99.90;;;;;;4981426;28;20457;-68
2022/11/25 06:03:44;;;;;;;3.53;2.63;;;3.50;99.90;;;;;;4992180;28;20447;-68
2022/11/25 06:06:11;;;;;;;4.27;2.90;;;3.60;99.90;;;;;;4982768;28;20492;-68
2022/11/25 06:08:38;;;;;;;3.27;2.37;;;3.60;99.90;;;;;;4986323;28;20470;-70
2022/11/25 06:11:08;;;;;;;4.30;3.07;;;3.50;99.90;;;;;;4978860;28;20461;-72
2022/11/25 06:13:35;;;;;;;8.07;3.00;;;3.30;99.90;;;;;;4982863;28;20437;-72
2022/11/25 06:16:07;;;;;;;2.73;2.50;;;3.30;99.90;;;;;;4984795;28;21039;-71
2022/11/25 06:18:35;;;;;;;8.20;4.00;;;3.20;99.90;;;;;;4991125;28;20449;-71
2022/11/25 06:21:01;;;;;;;5.07;2.67;;;3.10;99.90;;;;;;4987585;28;20449;-69
2022/11/25 06:23:28;;;;;;;4.23;2.43;;;3.40;99.90;;;;;;4981551;28;20453;-70
2022/11/25 06:25:55;;;;;;;3.70;2.90;;;3.70;99.90;;;;;;4983689;28;20491;-70
2022/11/25 06:28:23;;;;;;;4.13;2.40;;;3.90;99.90;;;;;;4988209;28;20444;-70
2022/11/25 06:30:50;;;;;;;6.90;3.23;;;3.90;99.90;;;;;;4985177;28;20960;-72
2022/11/25 06:33:17;;;;;;;4.30;2.60;;;4.00;99.90;;;;;;4975979;28;20458;-70
2022/11/25 06:35:43;;;;;;;5.40;3.73;;;3.70;99.90;;;;;;4990975;28;20537;-68
2022/11/25 06:38:10;;;;;;;6.87;2.57;;;3.80;99.90;;;;;;4986561;28;20946;-70
2022/11/25 06:40:37;;;;;;;3.40;2.33;;;4.00;99.90;;;;;;4979708;28;20458;-70
2022/11/25 06:43:04;;;;;;;4.77;2.60;;;3.80;99.90;;;;;;4984521;28;20452;-70
2022/11/25 06:45:33;;;;;;;4.13;2.90;;;3.70;99.90;;;;;;4987692;28;20450;-70
2022/11/25 06:48:00;;;;;;;3.80;2.57;;;3.70;99.90;;;;;;4978144;28;20514;-71
2022/11/25 06:50:27;;;;;;;3.03;2.03;;;3.70;99.90;;;;;;4988205;28;20458;-70
2022/11/25 06:52:54;;;;;;;5.90;2.63;;;4.00;99.90;;;;;;4978891;28;20465;-71
2022/11/25 06:55:20;;;;;;;3.60;3.30;;;3.90;99.90;;;;;;4980342;28;20454;-71
2022/11/25 06:57:47;;;;;;;6.17;2.50;;;4.00;99.90;;;;;;4988629;28;20562;-70
2022/11/25 07:00:15;;;;;;;2.80;1.70;;;3.90;99.90;;;;;;4984646;28;20544;-71
2022/11/25 07:02:43;;;;;;;2.80;2.37;;;3.90;99.90;;;;;;4992120;28;20985;-71
2022/11/25 07:05:10;;;;;;;2.03;1.83;;;4.00;99.90;;;;;;4985883;28;20452;-70
2022/11/25 07:07:37;;;;;;;4.60;2.20;;;3.90;99.90;;;;;;4983252;28;20481;-70
2022/11/25 07:10:04;;;;;;;6.00;2.60;;;3.90;99.90;;;;;;4990387;28;20962;-71
2022/11/25 07:12:31;;;;;;;5.87;3.87;;;4.10;99.90;;;;;;4983989;28;20456;-71
2022/11/25 07:14:58;;;;;;;2.30;1.57;;;4.10;99.90;;;;;;4988772;28;20460;-71
2022/11/25 07:17:25;;;;;;;3.70;2.10;;;4.10;99.90;;;;;;4984893;28;20451;-71
2022/11/25 07:19:53;;;;;;;3.80;1.53;;;4.20;99.90;;;;;;4985286;28;20491;-71
2022/11/25 07:22:19;;;;;;;2.03;1.60;;;4.30;99.90;;;;;;4977675;28;20441;-71
2022/11/25 07:24:46;;;;;;;8.97;2.80;;;4.20;99.90;;;;;;4987520;28;20962;-70
2022/11/25 07:27:13;;;;;;;2.73;2.00;;;4.10;99.90;;;;;;4984349;28;21019;-70
2022/11/25 07:29:40;;;;;;;4.80;1.80;;;4.20;99.90;;;;;;4974096;28;20466;-68
2022/11/25 07:32:07;;;;;;;4.93;2.20;;;4.30;99.90;;;;;;4984084;28;20457;-71
2022/11/25 07:34:34;;;;;;;2.60;1.63;;;4.50;99.90;;;;;;4985752;28;20454;-70
2022/11/25 07:37:02;;;;;;;3.53;2.00;;;4.60;99.90;;;;;;4980615;28;21090;-71
2022/11/25 07:39:29;;;;;;;2.53;2.20;;;4.60;99.90;;;;;;4990989;28;20472;-71
2022/11/25 07:41:55;;;;;;;6.23;3.43;;;4.60;99.90;;;;;;4984135;28;20468;-70
2022/11/25 07:44:22;;;;;;;3.67;2.40;;;4.70;99.90;;;;;;4984887;28;20450;-71
2022/11/25 07:46:50;;;;;;;2.27;2.07;;;4.80;99.90;;;;;;4983911;28;20474;-71
2022/11/25 07:49:19;;;;;;;3.53;2.00;;;5.00;99.90;;;;;;4984546;28;20464;-71
2022/11/25 07:51:49;;;;;;;3.37;1.73;;;5.20;99.90;;;;;;4981484;28;20464;-71
2022/11/25 07:54:17;;;;;;;2.37;1.87;;;5.10;99.90;;;;;;4978955;28;20460;-71
2022/11/25 07:56:45;;;;;;;10.33;2.97;;;5.20;99.90;;;;;;4989959;28;20465;-70
2022/11/25 07:59:14;;;;;;;3.30;2.47;;;5.30;99.90;;;;;;4986234;28;20542;-70
2022/11/25 08:01:42;;;;;;;5.60;2.60;;;5.30;99.90;;;;;;4980000;28;20469;-70
2022/11/25 08:04:10;;;;;;;3.47;2.70;;;5.30;99.90;;;;;;4983566;28;20455;-71
2022/11/25 08:06:39;;;;;;;3.80;2.87;;;5.40;99.90;;;;;;4983111;28;20487;-71
2022/11/25 08:09:06;;;;;;;6.07;2.33;;;5.40;99.90;;;;;;4987567;28;20471;-70
2022/11/25 08:11:35;;;;;;;2.77;2.30;;;5.50;99.90;;;;;;4987580;28;20462;-71
2022/11/25 08:14:02;;;;;;;6.60;2.67;;;5.50;99.90;;;;;;4989599;28;20455;-72
2022/11/25 08:16:30;;;;;;;5.80;2.30;;;5.60;99.90;;;;;;4984905;28;20463;-71
2022/11/25 08:18:58;;;;;;;5.90;2.53;;;5.60;99.90;;;;;;4981794;28;20674;-71
2022/11/25 08:21:25;;;;;;;5.40;2.13;;;5.60;99.90;;;;;;4982150;28;20788;-70
2022/11/25 08:23:53;;;;;;;4.83;2.13;;;5.60;99.90;;;;;;4989311;28;20461;-71
2022/11/25 08:26:22;;;;;;;5.60;3.20;;;5.60;99.90;;;;;;4989031;28;20479;-71
2022/11/25 08:28:50;;;;;;;3.10;1.90;;;5.60;99.90;;;;;;4974603;28;20460;-71
2022/11/25 08:31:20;;;;;;;7.93;3.37;;;5.70;99.90;;;;;;4978329;28;20461;-71
2022/11/25 08:33:47;;;;;;;7.33;2.50;;;5.80;99.90;;;;;;4987976;28;20458;-71
2022/11/25 08:36:15;;;;;;;3.10;2.03;;;5.90;99.90;;;;;;4985700;28;20820;-71
2022/11/25 08:38:42;;;;;;;6.33;2.10;;;5.90;99.90;;;;;;4987009;28;20506;-69
2022/11/25 08:41:11;;;;;;;3.20;2.43;;;6.00;99.90;;;;;;4984374;28;20447;-71
2022/11/25 08:43:38;;;;;;;15.10;5.90;;;6.00;99.90;;;;;;4987484;28;20457;-71
2022/11/25 08:46:12;;;;;;;4.67;2.90;;;6.10;99.90;;;;;;4980208;28;20449;-71
2022/11/25 08:48:39;;;;;;;3.63;2.53;;;6.10;99.90;;;;;;4974756;28;20453;-71
2022/11/25 08:51:09;;;;;;;3.00;2.40;;;6.10;99.90;;;;;;4980344;28;20821;-71
2022/11/25 08:53:37;;;;;;;1.83;1.53;;;6.20;99.90;;;;;;4978139;28;20461;-71
2022/11/25 08:56:04;;;;;;;6.57;2.50;;;6.30;99.90;;;;;;4978510;28;20479;-71
2022/11/25 08:58:31;;;;;;;5.23;2.30;;;6.30;99.90;;;;;;4980928;28;20537;-70
2022/11/25 09:00:58;;;;;;;3.70;1.93;;;6.40;99.90;;;;;;4978353;28;20975;-71
2022/11/25 09:03:26;;;;;;;3.80;1.63;;;6.50;99.90;;;;;;4984868;28;20957;-71
2022/11/25 09:05:54;;;;;;;3.20;1.37;;;6.60;99.90;;;;;;4985306;28;20474;-71
2022/11/25 09:08:21;;;;;;;3.50;1.87;;;6.70;99.90;;;;;;4983607;28;20489;-71
2022/11/25 09:10:47;;;;;;;2.80;2.33;;;6.70;99.90;;;;;;4978059;28;20451;-71
2022/11/25 09:13:14;;;;;;;4.70;1.67;;;6.80;99.90;;;;;;4986335;28;20897;-72
2022/11/25 09:15:41;;;;;;;3.20;2.13;;;7.00;99.90;;;;;;4987485;28;20455;-71
2022/11/25 09:18:10;;;;;;;2.30;1.63;;;7.10;99.90;;;;;;4988601;28;20472;-72
2022/11/25 09:20:40;;;;;;;2.13;1.67;;;;;;;;;;4985623;28;20461;-72
2022/11/25 09:23:08;;;;;;;2.40;1.83;;;;;;;;;;4982096;28;20443;-71
2022/11/25 09:25:36;;;;;;;3.27;2.30;;;;;;;;;;4987559;28;20903;-71
2022/11/25 09:28:04;;;;;;;2.00;1.43;;;;;;;;;;4986163;28;20486;-71
2022/11/25 09:30:31;;;;;;;2.57;1.77;;;;;;;;;;4982342;28;20454;-72
2022/11/25 09:32:58;;;;;;;3.20;1.90;;;;;;;;;;4991748;28;20459;-71
2022/11/25 09:35:26;;;;;;;1.87;1.40;;;;;;;;;;4983160;28;20551;-72
2022/11/25 09:37:54;;;;;;;3.17;1.97;;;;;;;;;;4979274;28;20826;-70
2022/11/25 09:40:25;;;;;;;2.97;1.40;;;;;;;;;;4990409;28;20466;-70
2022/11/25 09:48:41;;;;;;;1.93;1.47;;;;;;;;;;4987190;28;21176;-71
2022/11/25 09:51:13;;;;;;;3.40;2.10;;;;;;;;;;4987568;28;20445;-68
2022/11/25 09:53:44;;;;;;;1.70;1.53;;;;;;;;;;4989578;28;20816;-67
2022/11/25 09:56:15;;;;;;;5.60;2.20;;;;;;;;;;4992457;28;20445;-68
2022/11/25 09:58:47;;;;;;;2.80;1.80;;;;;;;;;;4986290;28;20483;-69
2022/11/25 10:01:16;;;;;;;4.50;1.10;;;;;;;;;;4990789;28;20460;-68
2022/11/25 10:03:45;;;;;;;2.60;1.50;;;;;;;;;;4992696;28;20532;-68
2022/11/25 10:06:15;;;;;;;1.77;1.50;;;;;;;;;;4986195;28;20454;-68
2022/11/25 10:08:45;;;;;;;2.87;1.90;;;;;;;;;;4986738;28;20470;-68
2022/11/25 10:11:22;;;;;;;6.20;1.80;;;;;;;;;;4983725;28;20464;-68
2022/11/25 10:13:53;;;;;;;2.90;2.40;;;;;;;;;;4991339;28;20453;-68
2022/11/25 10:16:29;;;;;;;1.83;1.47;;;;;;;;;;4987675;28;20443;-68
2022/11/25 10:18:59;;;;;;;2.60;1.00;;;;;;;;;;4986786;28;20449;-68
2022/11/25 10:21:26;;;;;;;4.47;1.33;;;;;;;;;;4987272;28;20472;-68
2022/11/25 10:23:55;;;;;;;4.07;1.90;;;;;;;;;;4981180;28;20458;-69
2022/11/25 10:26:23;;;;;;;2.63;1.40;;;;;;;;;;4984573;28;20461;-68
2022/11/25 10:28:54;;;;;;;3.83;1.37;;;;;;;;;;4987569;28;20486;-68
2022/11/25 10:31:23;;;;;;;2.50;1.87;;;;;;;;;;4988707;28;20459;-69
2022/11/25 10:33:52;;;;;;;12.40;1.60;;;;;;;;;;4982455;28;20454;-69
2022/11/25 10:36:21;;;;;;;3.47;1.77;;;;;;;;;;4989656;28;20457;-69
2022/11/25 10:38:51;;;;;;;3.60;1.67;;;;;;;;;;4992777;28;20465;-69
2022/11/25 10:41:21;;;;;;;6.60;1.37;;;;;;;;;;4989896;28;20457;-70
2022/11/25 10:43:49;;;;;;;5.30;2.63;;;;;;;;;;4988038;28;20492;-70
2022/11/25 10:46:21;;;;;;;2.83;1.70;;;;;;;;;;4984432;28;20472;-70
2022/11/25 10:48:57;;;;;;;3.37;1.27;;;;;;;;;;4989713;28;20477;-69
2022/11/25 10:51:32;;;;;;;1.63;1.03;;;;;;;;;;4979834;28;20453;-70
2022/11/25 10:54:09;;;;;;;3.20;1.10;;;;;;;;;;4988479;28;20540;-70
2022/11/25 10:56:42;;;;;;;1.67;1.13;;;;;;;;;;4973203;28;20450;-70
2022/11/25 10:59:14;;;;;;;2.03;1.20;;;;;;;;;;4986775;28;20453;-70
2022/11/25 11:01:41;;;;;;;3.33;1.63;;;;;;;;;;4990190;28;20474;-70
2022/11/25 11:04:13;;;;;;;2.23;0.77;;;;;;;;;;4978361;28;20989;-70
2022/11/25 11:06:42;;;;;;;2.23;1.87;;;;;;;;;;4980353;28;20532;-68
2022/11/25 11:09:30;;;;;;;2.00;0.80;;;;;;;;;;4982751;28;20466;-70
2022/11/25 11:11:58;;;;;;;4.10;2.20;;;;;;;;;;4988619;28;20780;-70
2022/11/25 11:14:28;;;;;;;1.10;0.90;;;;;;;;;;4982676;28;20583;-71
2022/11/25 11:16:56;;;;;;;5.17;1.00;;;;;;;;;;4978850;28;20463;-72
2022/11/25 11:19:25;;;;;;;6.33;1.63;;;;;;;;;;4985424;28;20919;-71
2022/11/25 11:21:52;;;;;;;1.43;1.03;;;;;;;;;;4987800;28;20452;-70
2022/11/25 11:24:26;;;;;;;4.20;0.97;;;;;;;;;;4991355;28;20796;-69
2022/11/25 11:27:04;;;;;;;1.50;1.00;;;;;;;;;;4977336;28;20461;-70
2022/11/25 11:29:31;;;;;;;2.10;0.63;;;;;;;;;;4991109;28;20935;-68
2022/11/25 11:31:59;;;;;;;3.40;1.33;;;;;;;;;;4975151;28;20517;-71
2022/11/25 11:34:36;;;;;;;1.67;1.13;;;;;;;;;;4985305;28;20452;-76
2022/11/25 11:37:15;;;;;;;1.13;0.93;;;;;;;;;;4971733;28;20944;-71
2022/11/25 11:39:58;;;;;;;4.90;1.40;;;;;;;;;;4983812;28;20544;-66
2022/11/25 11:42:31;;;;;;;4.73;1.87;;;;;;;;;;4974878;28;20952;-67
2022/11/25 11:45:03;;;;;;;4.63;2.10;;;;;;;;;;4978761;28;20458;-67
2022/11/25 11:47:34;;;;;;;4.93;3.60;;;;;;;;;;4986715;28;20467;-67
2022/11/25 11:50:04;;;;;;;7.20;3.40;;;;;;;;;;4982889;28;21055;-67
2022/11/25 11:52:37;;;;;;;4.53;4.10;;;;;;;;;;4981180;28;20452;-67
2022/11/25 11:55:15;;;;;;;8.90;3.60;;;;;;;;;;4972564;28;20444;-67
2022/11/25 11:57:46;;;;;;;7.80;3.97;;;;;;;;;;4979050;28;20935;-67
2022/11/25 12:00:15;;;;;;;3.80;3.40;;;;;;;;;;4983751;28;20472;-67
2022/11/25 12:02:52;;;;;;;5.60;3.80;;;;;;;;;;4978569;28;20481;-69
2022/11/25 12:05:22;;;;;;;6.20;3.00;;;;;;;;;;4988340;28;20774;-67
2022/11/25 12:07:55;;;;;;;5.57;3.37;;;;;;;;;;4977961;28;20762;-67
2022/11/25 12:10:24;;;;;;;3.57;2.93;;;;;;;;;;4987572;28;20448;-66
2022/11/25 12:12:55;;;;;;;2.50;0.93;;;;;;;;;;4980856;28;20453;-66
2022/11/25 12:15:25;;;;;;;2.20;1.70;;;;;;;;;;4981755;28;20460;-67
2022/11/25 12:17:54;;;;;;;5.30;2.20;;;;;;;;;;4981295;28;20452;-68
2022/11/25 12:20:26;;;;;;;3.43;2.53;;;;;;;;;;4981314;28;20461;-69
2022/11/25 12:22:58;;;;;;;10.10;2.00;;;;;;;;;;4984691;28;20966;-69
2022/11/25 12:25:27;;;;;;;4.60;2.10;;;;;;;;;;4984725;28;20499;-69
2022/11/25 12:28:00;;;;;;;2.80;1.87;;;;;;;;;;4982097;28;20479;-68
2022/11/25 12:30:29;;;;;;;3.00;1.67;;;;;;;;;;4971805;28;20460;-67
2022/11/25 12:33:04;;;;;;;4.17;1.37;;;;;;;;;;4984079;28;20951;-68
2022/11/25 12:35:37;;;;;;;2.80;1.63;;;;;;;;;;4989583;28;20932;-67
2022/11/25 12:38:06;;;;;;;2.00;1.13;;;;;;;;;;4989904;28;20998;-68
2022/11/25 12:40:36;;;;;;;2.70;2.50;;;;;;;;;;4979909;28;20452;-68
2022/11/25 12:43:11;;;;;;;5.07;1.67;;;;;;;;;;4989027;28;20464;-68
2022/11/25 12:45:39;;;;;;;4.63;1.67;;;;;;;;;;4978210;28;20457;-69
2022/11/25 12:48:09;;;;;;;2.50;1.80;;;;;;;;;;4976511;28;21081;-70
2022/11/25 12:50:45;;;;;;;8.10;1.63;;;7.30;63.70;;;;;;4977870;28;20473;-70
2022/11/25 12:53:23;;;;;;;1.63;1.10;;;10.10;1.00;;;;;;4976097;28;20959;-69
2022/11/25 12:55:51;;;;;;;2.60;1.33;;;10.20;1.00;;;;;;4987117;28;20501;-68
2022/11/25 12:58:43;;;;;;;2.07;1.70;;;10.00;1.00;;;;;;4980848;28;20975;-68
2022/11/25 13:01:42;;;;;;;1.47;1.20;;;9.90;1.00;;;;;;4989330;28;20547;-68
2022/11/25 13:04:45;;;;;;;2.63;1.73;;;9.90;1.00;;;;;;4946370;28;20447;-68
2022/11/25 13:07:25;;;;;;;2.60;1.93;;;9.90;1.00;;;;;;4978313;28;20478;-68
2022/11/25 13:10:35;;;;;;;5.30;1.83;;;9.90;1.00;;;;;;4987097;28;20491;-68
2022/11/25 13:13:24;;;;;;;2.37;1.63;;;9.90;1.00;;;;;;4968003;28;20835;-69
2022/11/25 13:15:54;;;;;;;2.83;1.47;;;9.90;1.00;;;;;;4991525;28;20449;-68
2022/11/25 13:18:25;;;;;;;2.10;1.13;;;9.90;1.00;;;;;;4988507;28;20445;-69
2022/11/25 13:20:53;;;;;;;2.57;1.50;;;9.90;1.00;;;;;;4992042;28;20927;-67
2022/11/25 13:23:39;;;;;;;3.67;1.60;;;9.80;1.00;;;;;;4983462;28;20459;-68
2022/11/25 13:26:36;;;;;;;3.97;1.50;;;9.80;1.00;;;;;;4983150;28;20449;-68
2022/11/25 13:29:35;;;;;;;3.23;1.80;;;9.80;1.00;;;;;;4980512;28;20487;-69
2022/11/25 13:32:24;;;;;;;1.10;0.80;;;9.90;1.00;;;;;;4974563;28;20603;-68
2022/11/25 13:34:51;;;;;;;3.20;1.50;;;9.90;1.00;;;;;;4981977;28;20450;-68
2022/11/25 13:37:36;;;;;;;3.70;1.80;;;9.90;1.00;;;;;;4989718;28;20471;-68
2022/11/25 13:40:21;;;;;;;3.67;2.20;;;9.90;1.00;;;;;;4987871;28;20560;-68
2022/11/25 13:42:47;;;;;;;3.60;2.63;;;9.90;1.00;;;;;;4983621;28;20462;-67
2022/11/25 13:45:25;;;;;;;3.33;2.30;;;9.90;1.00;;;;;;4992045;28;20479;-68